KLHM

Lincoln Regional / Karl Harder Field Airport

Lincoln, California, USA
METAR KLHM 220955Z AUTO 15009KT 10SM CLR 13/10 A2980 RMK AO1
Observed Flight Rules
May-22 @ 09:55 UTC (7 minutes ago) Visual Flight Rules
Wind Visibility Clouds
150° at 9 knots 10 miles
  • Clear skies
Temperatures Readings
Current 13°C / 55°F
Dewpoint 10°C / 50°F
Humidity 82%
Altimeter 29.8" Hg
Pressure 1009 hPa
Elevation 37
METAR KLHM 220955Z AUTO 15009KT 10SM CLR 13/10 A2980 RMK AO1
Observed Flight Rules
May-22 @ 09:55 UTC
(7 minutes ago)
VFR
Wind Visibility
150° at 9 knots 10 miles
Clouds
  • Clear skies
Temperature Dewpoint
13°C / 55°F 10°C / 50°F
Humidity Altimeter Pressure
82% 29.8" Hg 1009 hPa